Time;durP1;ratioP1;P1;durP2;ratioP2;P2;SDS_P1;SDS_P2;PMS_P1;PMS_P2;Temp;Humidity;BMP_temperature;BMP_pressure;BME280_temperature;BME280_humidity;BME280_pressure;Samples;Min_cycle;Max_cycle;Signal;HPM_P1;HPM_P2
2023/12/02 00:00:32;;;;;;;35.28;4.75;;;;;;;3.55;96.87;97890.00;4247084;33;32486;-90
2023/12/02 00:03:04;;;;;;;35.88;5.18;;;;;;;3.72;94.23;97902.59;4256382;33;34480;-90
2023/12/02 00:05:33;;;;;;;34.53;4.35;;;;;;;3.22;97.50;97909.25;4250948;33;33669;-90
2023/12/02 00:08:06;;;;;;;57.88;4.78;;;;;;;3.31;99.15;97906.56;4256243;33;33069;-90
2023/12/02 00:10:34;;;;;;;57.83;4.53;;;;;;;3.23;98.37;97896.41;4252626;33;33905;-91
2023/12/02 00:13:04;;;;;;;28.38;4.05;;;;;;;3.16;98.95;97893.06;4246815;33;33771;-90
2023/12/02 00:15:35;;;;;;;63.97;5.22;;;;;;;3.25;100.00;97894.69;4251773;33;33724;-89
2023/12/02 00:18:08;;;;;;;63.93;6.63;;;;;;;3.41;99.06;97898.75;4258162;33;34005;-89
2023/12/02 00:20:37;;;;;;;7.75;2.47;;;;;;;3.37;98.34;97899.66;4244755;33;34297;-89
2023/12/02 00:23:09;;;;;;;47.35;4.43;;;;;;;3.97;94.56;97903.09;4240552;33;34684;-88
2023/12/02 00:25:37;;;;;;;45.35;4.87;;;;;;;4.28;91.17;97906.03;4250787;33;33407;-88
2023/12/02 00:28:12;;;;;;;29.35;3.83;;;;;;;4.54;89.69;97910.69;4241216;33;34228;-87
2023/12/02 00:30:43;;;;;;;28.12;4.28;;;;;;;3.62;95.69;97901.88;4243984;33;34602;-87
2023/12/02 00:33:12;;;;;;;23.70;3.47;;;;;;;4.07;93.08;97902.06;4238691;33;34793;-88
2023/12/02 00:35:41;;;;;;;114.53;5.82;;;;;;;3.40;96.09;97906.44;4249523;33;33736;-86
2023/12/02 00:38:14;;;;;;;45.55;4.82;;;;;;;3.45;96.36;97894.41;4257585;33;33320;-88
2023/12/02 00:40:43;;;;;;;35.78;4.70;;;;;;;4.16;92.59;97883.97;4253552;33;33068;-88
2023/12/02 00:43:12;;;;;;;55.50;5.03;;;;;;;4.51;90.56;97879.09;4253873;33;34116;-89
2023/12/02 00:45:48;;;;;;;33.25;3.45;;;;;;;4.38;90.26;97884.44;4251498;33;33577;-87
2023/12/02 00:48:28;;;;;;;53.85;4.78;;;;;;;4.05;92.18;97901.25;4244805;33;32889;-89
2023/12/02 00:50:57;;;;;;;87.82;5.50;;;;;;;3.34;97.55;97894.56;4253638;33;33511;-89
2023/12/02 00:53:26;;;;;;;41.88;3.83;;;;;;;4.05;92.88;97890.97;4252130;33;33600;-88
2023/12/02 00:55:57;;;;;;;44.53;5.22;;;;;;;4.10;91.41;97886.62;4249210;33;34589;-87
2023/12/02 00:58:29;;;;;;;26.52;4.72;;;;;;;4.45;89.81;97885.19;4252379;33;34375;-89
2023/12/02 01:01:10;;;;;;;77.90;5.60;;;;;;;4.40;90.43;97897.25;4257206;33;33841;-90
2023/12/02 01:03:45;;;;;;;45.10;4.60;;;;;;;4.55;89.64;97904.69;4258158;33;34285;-90
2023/12/02 01:06:13;;;;;;;36.80;5.43;;;;;;;4.10;89.80;97893.47;4250833;33;33958;-89
2023/12/02 01:08:45;;;;;;;30.37;4.30;;;;;;;4.22;90.89;97873.56;4255420;33;33398;-87
2023/12/02 01:11:14;;;;;;;39.15;5.43;;;;;;;4.50;89.58;97875.69;4252388;33;33531;-89
2023/12/02 01:13:48;;;;;;;55.15;4.62;;;;;;;4.48;89.67;97880.00;4258403;33;33712;-87
2023/12/02 01:16:18;;;;;;;94.03;6.43;;;;;;;4.39;90.06;97875.00;4251598;33;32865;-90
2023/12/02 01:18:51;;;;;;;32.97;3.45;;;;;;;3.89;92.62;97882.69;4253840;33;33375;-89
2023/12/02 01:21:35;;;;;;;27.65;3.92;;;;;;;4.73;88.93;97880.38;4249620;33;33400;-87
2023/12/02 01:24:14;;;;;;;118.60;6.25;;;;;;;4.18;92.02;97860.81;4240476;33;33903;-89
2023/12/02 01:26:46;;;;;;;88.05;5.43;;;;;;;3.88;94.85;97869.88;4253822;33;34248;-88
2023/12/02 01:29:58;;;;;;;44.72;4.15;;;;;;;4.41;89.79;97870.69;4237675;33;34375;-88
2023/12/02 01:32:28;;;;;;;51.33;4.55;;;;;;;4.64;89.37;97873.72;4253360;33;34469;-88
2023/12/02 01:34:58;;;;;;;37.60;5.63;;;;;;;4.00;94.01;97874.81;4253621;33;34142;-88
2023/12/02 01:37:30;;;;;;;41.25;4.57;;;;;;;4.25;93.63;97867.53;4256217;33;33535;-88
2023/12/02 01:40:02;;;;;;;42.75;4.65;;;;;;;4.64;90.61;97850.59;4253292;33;33243;-88
2023/12/02 01:42:31;;;;;;;25.85;3.62;;;;;;;3.93;93.14;97856.09;4253096;33;33576;-88
2023/12/02 01:45:00;;;;;;;20.48;4.62;;;;;;;4.77;89.55;97858.06;4253438;33;33587;-88
2023/12/02 01:47:36;;;;;;;49.35;4.15;;;;;;;4.85;88.71;97853.59;4258095;33;33044;-87
2023/12/02 01:50:08;;;;;;;32.72;4.95;;;;;;;4.55;90.12;97863.59;4252924;33;32660;-87
2023/12/02 01:52:37;;;;;;;36.58;3.95;;;;;;;4.53;90.76;97847.38;4255564;33;33767;-89
2023/12/02 01:55:10;;;;;;;22.70;3.92;;;;;;;4.73;88.79;97859.81;4257673;33;34040;-87
2023/12/02 01:57:39;;;;;;;30.98;4.05;;;;;;;4.60;90.54;97858.38;4256147;33;34652;-89
2023/12/02 02:00:10;;;;;;;73.78;4.78;;;;;;;5.03;87.84;97863.53;4254370;33;33082;-89
2023/12/02 02:02:41;;;;;;;96.35;5.35;;;;;;;4.14;90.50;97843.81;4254670;33;33902;-88
2023/12/02 02:05:12;;;;;;;60.25;4.62;;;;;;;4.17;92.15;97839.44;4259409;33;33784;-86
2023/12/02 02:07:41;;;;;;;30.33;3.62;;;;;;;4.68;89.89;97847.06;4255218;33;33185;-90
2023/12/02 02:10:12;;;;;;;27.10;3.33;;;;;;;4.70;88.26;97827.34;4255140;33;33434;-87
2023/12/02 02:12:41;;;;;;;39.45;4.93;;;;;;;4.62;88.46;97821.53;4254812;33;33126;-88
2023/12/02 02:15:14;;;;;;;62.90;4.93;;;;;;;4.27;91.02;97825.56;4256006;33;34070;-88
2023/12/02 02:17:45;;;;;;;107.28;6.07;;;;;;;4.21;91.47;97809.47;4269741;33;34336;-88
2023/12/02 02:20:16;;;;;;;67.57;5.70;;;;;;;4.18;90.35;97794.09;4252533;33;33319;-88
2023/12/02 02:22:46;;;;;;;53.33;4.45;;;;;;;4.48;91.75;97805.53;4255183;33;33532;-88
2023/12/02 02:25:18;;;;;;;74.35;5.87;;;;;;;3.80;93.52;97799.03;4256800;33;36181;-89
2023/12/02 02:27:47;;;;;;;29.65;3.40;;;;;;;4.19;94.77;97844.56;4257864;33;32991;-89
2023/12/02 02:30:17;;;;;;;80.80;5.20;;;;;;;3.68;95.40;97800.94;4253127;33;33075;-88
2023/12/02 02:32:46;;;;;;;55.80;4.40;;;;;;;3.76;97.14;97810.19;4254156;33;33397;-88
2023/12/02 02:35:17;;;;;;;15.95;3.58;;;;;;;3.96;98.24;97821.84;4253625;33;33996;-87
2023/12/02 02:37:47;;;;;;;39.97;4.37;;;;;;;4.37;94.07;97818.56;4257291;33;33580;-88
2023/12/02 02:40:19;;;;;;;9.18;3.87;;;;;;;4.19;94.19;97813.78;4258207;33;33721;-88
2023/12/02 02:42:47;;;;;;;34.70;5.07;;;;;;;4.10;95.17;97801.94;4253157;33;32931;-90
2023/12/02 02:45:24;;;;;;;56.10;5.07;;;;;;;4.16;95.42;97809.53;4252629;33;33775;-89
2023/12/02 02:47:52;;;;;;;43.33;5.75;;;;;;;3.62;98.21;97796.75;4256041;33;34133;-89
2023/12/02 02:50:24;;;;;;;70.65;4.50;;;;;;;4.17;95.87;97795.81;4253432;33;33905;-87
2023/12/02 02:52:55;;;;;;;87.65;5.12;;;;;;;4.50;91.58;97801.22;4251874;33;35187;-88
2023/12/02 02:55:24;;;;;;;34.15;4.28;;;;;;;3.85;94.99;97811.78;4253690;33;33440;-87
2023/12/02 02:57:53;;;;;;;72.45;4.50;;;;;;;3.86;97.50;97818.59;4252790;33;32005;-88
2023/12/02 03:00:30;;;;;;;36.28;3.55;;;;;;;3.93;94.87;97807.34;4253928;33;33017;-89
2023/12/02 03:03:00;;;;;;;54.65;4.85;;;;;;;4.57;92.33;97802.78;4251627;33;34118;-88
2023/12/02 03:05:30;;;;;;;54.90;4.85;;;;;;;4.88;90.55;97797.87;4240136;33;34819;-88
2023/12/02 03:08:01;;;;;;;38.45;4.03;;;;;;;4.47;93.46;97791.00;4253458;33;33649;-89
2023/12/02 03:10:36;;;;;;;58.97;3.70;;;;;;;3.80;96.66;97788.75;4254543;33;33142;-88
2023/12/02 03:13:12;;;;;;;80.38;5.72;;;;;;;4.31;95.00;97785.31;4254237;33;33739;-88
2023/12/02 03:15:40;;;;;;;59.42;4.65;;;;;;;4.46;90.37;97784.16;4259047;33;33789;-87
2023/12/02 03:18:10;;;;;;;12.52;3.30;;;;;;;4.27;94.60;97781.94;4258839;33;35343;-87
2023/12/02 03:20:40;;;;;;;22.47;3.93;;;;;;;4.21;92.76;97788.94;4253663;33;34094;-89
2023/12/02 03:23:17;;;;;;;36.88;4.18;;;;;;;4.07;94.35;97802.84;4254114;33;33511;-87
2023/12/02 03:25:46;;;;;;;32.83;4.18;;;;;;;4.56;91.12;97793.38;4258550;33;33517;-89
2023/12/02 03:28:16;;;;;;;37.30;4.47;;;;;;;4.32;93.02;97784.41;4258172;33;33789;-88
2023/12/02 03:30:44;;;;;;;19.92;3.25;;;;;;;4.26;93.93;97802.53;4252639;33;34376;-87
2023/12/02 03:33:14;;;;;;;14.15;3.58;;;;;;;4.65;92.92;97802.62;4253989;33;33700;-88
2023/12/02 03:35:45;;;;;;;20.17;3.20;;;;;;;4.84;88.87;97805.69;4254112;33;34167;-87
2023/12/02 03:38:18;;;;;;;51.85;4.80;;;;;;;4.83;88.70;97789.44;4258453;33;33606;-89
2023/12/02 03:40:47;;;;;;;38.28;3.80;;;;;;;4.15;91.91;97777.03;4253440;33;34163;-88
2023/12/02 03:43:20;;;;;;;46.75;4.43;;;;;;;3.87;95.12;97779.25;4253840;33;33400;-89
2023/12/02 03:45:49;;;;;;;50.65;4.72;;;;;;;4.44;93.63;97776.47;4254419;33;33564;-88
2023/12/02 03:48:20;;;;;;;44.13;4.25;;;;;;;4.61;91.79;97763.31;4257752;33;34258;-89
2023/12/02 03:50:50;;;;;;;83.53;4.95;;;;;;;4.59;88.88;97783.06;4255828;33;35008;-87
2023/12/02 03:53:23;;;;;;;86.70;5.47;;;;;;;4.69;91.21;97761.44;4250842;33;33303;-88
2023/12/02 03:55:53;;;;;;;41.55;5.00;;;;;;;4.42;91.27;97756.84;4252916;33;33773;-87
2023/12/02 03:58:23;;;;;;;21.52;3.17;;;;;;;4.30;94.12;97757.09;4249939;33;34005;-88
2023/12/02 04:00:51;;;;;;;60.60;4.25;;;;;;;4.15;94.31;97756.50;4252433;33;33551;-88
2023/12/02 04:03:20;;;;;;;78.30;5.07;;;;;;;4.21;95.20;97766.66;4249452;33;33631;-89
2023/12/02 04:05:53;;;;;;;71.15;5.53;;;;;;;4.46;92.14;97766.19;4252538;33;33023;-88
2023/12/02 04:08:23;;;;;;;60.00;4.78;;;;;;;4.27;94.77;97769.09;4240541;33;34525;-89
2023/12/02 04:10:55;;;;;;;39.20;4.68;;;;;;;4.11;94.74;97770.28;4254172;33;32683;-89
2023/12/02 04:13:30;;;;;;;53.40;4.87;;;;;;;3.90;95.84;97762.97;4259133;33;33134;-88
2023/12/02 04:15:59;;;;;;;73.50;5.00;;;;;;;4.15;95.49;97761.63;4255839;33;34238;-90
2023/12/02 04:18:28;;;;;;;51.55;4.53;;;;;;;4.54;92.37;97774.56;4258302;33;33918;-89
2023/12/02 04:20:57;;;;;;;67.15;5.32;;;;;;;4.88;90.52;97777.34;4255316;33;33490;-87
2023/12/02 04:23:30;;;;;;;25.08;4.15;;;;;;;4.55;90.13;97778.84;4259880;33;33713;-89
2023/12/02 04:25:59;;;;;;;42.88;4.90;;;;;;;4.33;92.71;97768.16;4255933;33;34457;-90
2023/12/02 04:28:34;;;;;;;57.33;4.12;;;;;;;4.17;95.07;97769.31;4256942;33;34522;-89
2023/12/02 04:31:03;;;;;;;50.25;5.28;;;;;;;4.54;91.22;97777.16;4255732;33;33755;-90
2023/12/02 04:33:33;;;;;;;22.45;3.80;;;;;;;4.28;93.42;97775.94;4255583;33;33454;-87
2023/12/02 04:36:02;;;;;;;57.08;3.50;;;;;;;4.28;94.73;97775.09;4259869;33;33416;-89
2023/12/02 04:38:35;;;;;;;32.72;3.90;;;;;;;3.95;95.93;97774.00;4255201;33;33389;-88
2023/12/02 04:41:05;;;;;;;25.30;3.15;;;;;;;4.18;95.75;97764.16;4252749;33;34276;-88
2023/12/02 04:43:36;;;;;;;26.00;3.80;;;;;;;4.18;93.62;97756.47;4254014;33;33866;-88
2023/12/02 04:46:06;;;;;;;17.87;4.25;;;;;;;4.56;93.59;97762.56;4259005;33;33488;-87
2023/12/02 04:48:38;;;;;;;52.05;4.32;;;;;;;4.68;92.96;97759.75;4253068;33;34400;-89
2023/12/02 04:51:08;;;;;;;18.83;3.75;;;;;;;4.07;96.37;97768.63;4253262;33;34174;-88
2023/12/02 04:53:39;;;;;;;30.70;4.50;;;;;;;3.69;98.79;97754.75;4254497;33;34128;-87
2023/12/02 04:56:10;;;;;;;27.50;3.95;;;;;;;4.63;93.96;97751.28;4258806;33;32021;-87
2023/12/02 04:58:42;;;;;;;57.25;5.22;;;;;;;4.20;94.77;97747.00;4259830;33;34313;-88
2023/12/02 05:01:11;;;;;;;28.45;3.80;;;;;;;4.01;95.58;97753.34;4254928;33;33292;-88
2023/12/02 05:03:42;;;;;;;20.02;4.45;;;;;;;4.21;95.08;97741.00;4255376;33;32989;-88
2023/12/02 05:06:14;;;;;;;66.62;5.03;;;;;;;4.57;93.33;97728.31;4256827;33;34163;-88
2023/12/02 05:08:50;;;;;;;24.42;3.47;;;;;;;4.20;96.13;97723.91;4255066;33;33709;-88
2023/12/02 05:11:29;;;;;;;17.25;3.45;;;;;;;4.53;92.83;97728.41;4260184;33;33113;-87
2023/12/02 05:13:58;;;;;;;19.15;3.53;;;;;;;4.11;94.96;97729.22;4243376;33;34572;-88
2023/12/02 05:16:27;;;;;;;4.95;2.83;;;;;;;4.26;95.08;97736.63;4242088;33;33919;-89
2023/12/02 05:18:55;;;;;;;18.60;3.92;;;;;;;3.99;95.41;97721.75;4248708;33;34477;-86
2023/12/02 05:21:30;;;;;;;10.45;2.85;;;;;;;4.39;95.36;97723.53;4259979;33;33209;-88
2023/12/02 05:24:00;;;;;;;4.32;2.80;;;;;;;4.26;96.90;97728.94;4254993;33;33775;-87
2023/12/02 05:26:29;;;;;;;26.05;3.33;;;;;;;4.03;95.73;97736.19;4255430;33;34295;-88
2023/12/02 05:28:59;;;;;;;7.68;3.67;;;;;;;4.34;94.56;97727.94;4255025;33;33530;-87
2023/12/02 05:31:28;;;;;;;20.27;3.85;;;;;;;3.61;99.43;97726.69;4255714;33;33888;-88
2023/12/02 05:33:58;;;;;;;5.37;3.25;;;;;;;3.77;100.00;97717.00;4258790;33;33303;-87
2023/12/02 05:36:31;;;;;;;9.15;2.67;;;;;;;4.45;94.66;97716.56;4253577;33;33589;-88
2023/12/02 05:39:02;;;;;;;6.95;3.58;;;;;;;3.65;98.84;97727.50;4245007;33;34156;-88
2023/12/02 05:41:33;;;;;;;8.88;3.08;;;;;;;3.81;98.81;97713.50;4260707;33;35667;-88
2023/12/02 05:44:01;;;;;;;;;;;;;;;3.72;100.00;97725.62;4258081;33;33552;-89
2023/12/02 05:46:39;;;;;;;5.10;3.05;;;;;;;4.19;97.34;97727.34;4255617;33;33524;-89
2023/12/02 05:49:08;;;;;;;21.12;3.50;;;;;;;4.23;97.99;97723.84;4258426;33;33294;-88
2023/12/02 05:51:43;;;;;;;10.82;3.28;;;;;;;4.23;95.48;97731.56;4252469;33;34022;-88
2023/12/02 05:54:22;;;;;;;14.50;3.92;;;;;;;3.84;98.00;97734.00;4253583;33;33859;-89
2023/12/02 05:56:52;;;;;;;17.62;3.00;;;;;;;3.93;98.43;97730.41;4259153;33;33419;-89
2023/12/02 05:59:27;;;;;;;5.75;3.47;;;;;;;3.88;100.00;97729.63;4258980;33;33699;-88
2023/12/02 06:02:04;;;;;;;16.27;3.25;;;;;;;3.76;100.00;97723.00;4253508;33;33357;-88
2023/12/02 06:04:33;;;;;;;37.92;3.67;;;;;;;3.78;99.94;97718.69;4252747;33;34152;-87
2023/12/02 06:07:05;;;;;;;45.17;3.35;;;;;;;4.27;97.50;97711.78;4255312;33;33871;-87
2023/12/02 06:09:35;;;;;;;6.78;3.42;;;;;;;4.40;96.94;97705.56;4259248;33;33560;-86
2023/12/02 06:12:07;;;;;;;8.57;3.00;;;;;;;4.75;94.03;97723.66;4255187;33;33311;-88
2023/12/02 06:14:36;;;;;;;5.75;3.05;;;;;;;4.18;96.36;97728.25;4255152;33;33331;-88
2023/12/02 06:17:08;;;;;;;23.38;3.78;;;;;;;4.19;95.39;97752.19;4255112;33;34795;-88
2023/12/02 06:19:37;;;;;;;9.35;3.60;;;;;;;4.55;96.98;97757.47;4254614;33;33903;-88
2023/12/02 06:22:09;;;;;;;16.50;4.03;;;;;;;4.72;91.89;97760.53;4259699;33;34017;-87
2023/12/02 06:24:40;;;;;;;10.48;3.92;;;;;;;4.37;94.32;97750.97;4255135;33;33708;-88
2023/12/02 06:27:09;;;;;;;7.55;3.60;;;;;;;4.67;93.17;97755.50;4251974;33;35643;-89
2023/12/02 06:29:37;;;;;;;8.45;3.92;;;;;;;4.41;94.33;97768.00;4254181;33;34034;-88
2023/12/02 06:32:12;;;;;;;12.50;4.35;;;;;;;4.77;91.90;97760.44;4259838;33;33377;-89
2023/12/02 06:34:41;;;;;;;7.50;3.42;;;;;;;4.91;92.36;97779.00;4254641;33;33024;-88
2023/12/02 06:37:12;;;;;;;11.45;3.62;;;;;;;4.98;90.68;97770.28;4256903;33;34706;-88
2023/12/02 06:39:42;;;;;;;4.00;2.83;;;;;;;5.36;88.37;97783.97;4255080;33;33973;-88
2023/12/02 06:42:12;;;;;;;4.27;2.67;;;;;;;5.00;90.43;97789.06;4250476;33;102476;-88
2023/12/02 06:44:42;;;;;;;5.07;2.65;;;;;;;5.31;89.08;97793.53;4259668;33;34231;-87
2023/12/02 06:47:15;;;;;;;4.25;2.67;;;;;;;5.62;86.77;97780.81;4252960;33;33355;-88
2023/12/02 06:49:44;;;;;;;6.28;2.92;;;;;;;5.22;88.22;97768.00;4253139;33;33403;-88
2023/12/02 06:52:13;;;;;;;5.28;3.20;;;;;;;4.78;91.40;97767.25;4253399;33;32230;-88
2023/12/02 06:54:48;;;;;;;5.18;3.25;;;;;;;4.87;91.30;97778.19;4258040;33;33455;-89
2023/12/02 06:57:37;;;;;;;7.03;3.37;;;;;;;4.74;91.00;97778.50;4256131;33;34365;-87
2023/12/02 07:00:13;;;;;;;5.70;3.75;;;;;;;4.95;89.98;97775.44;4253186;33;33943;-89
2023/12/02 07:02:46;;;;;;;5.57;2.95;;;;;;;5.01;90.88;97759.91;4251415;33;34020;-88
2023/12/02 07:05:15;;;;;;;7.53;3.83;;;;;;;4.55;92.40;97773.72;4250761;33;34314;-88
2023/12/02 07:07:50;;;;;;;5.00;2.97;;;;;;;4.86;90.80;97779.09;4252332;33;33957;-87
2023/12/02 07:10:23;;;;;;;5.68;2.85;;;;;;;4.97;90.56;97776.28;4256247;33;34450;-87
2023/12/02 07:12:51;;;;;;;8.35;3.35;;;;;;;5.03;91.22;97776.16;4252231;33;32851;-89
2023/12/02 07:17:54;;;;;;;5.15;3.15;;;;;;;5.24;90.06;97789.41;4256612;33;34485;-87
2023/12/02 07:20:27;;;;;;;9.32;3.65;;;;;;;4.96;89.85;97782.31;4258803;33;34542;-88
2023/12/02 07:22:56;;;;;;;6.22;3.83;;;;;;;5.28;88.51;97766.16;4254348;33;33783;-88
2023/12/02 07:25:33;;;;;;;5.60;2.87;;;;;;;4.89;91.17;97775.59;4255479;33;34515;-88
2023/12/02 07:28:01;;;;;;;11.95;3.80;;;;;;;5.32;90.09;97766.94;4258844;33;34462;-88
2023/12/02 07:30:31;;;;;;;7.45;3.15;;;;;;;5.14;89.76;97763.88;4255042;33;34491;-89
2023/12/02 07:33:00;;;;;;;7.72;3.50;;;;;;;4.79;90.82;97751.00;4259047;33;33381;-89
2023/12/02 07:35:29;;;;;;;7.28;3.83;;;;;;;5.05;92.06;97761.56;4253217;33;33616;-89
2023/12/02 07:38:01;;;;;;;8.57;3.90;;;;;;;4.93;90.64;97751.53;4255891;33;33821;-88
2023/12/02 07:40:36;;;;;;;4.97;2.87;;;;;;;5.01;93.25;97767.63;4252584;33;33328;-89
2023/12/02 07:43:05;;;;;;;6.57;3.28;;;;;;;4.38;95.94;97755.25;4253203;33;33377;-88
2023/12/02 07:45:36;;;;;;;5.70;2.97;;;;;;;5.18;91.42;97749.25;4255669;33;34523;-88
2023/12/02 07:48:05;;;;;;;16.00;3.05;;;;;;;5.12;92.29;97745.13;4251985;33;32440;-88
2023/12/02 07:50:37;;;;;;;13.40;4.50;;;;;;;5.60;88.80;97736.25;4251088;33;35309;-89
2023/12/02 07:53:06;;;;;;;10.25;3.47;;;;;;;4.89;94.73;97750.75;4252920;33;33853;-88
2023/12/02 07:55:41;;;;;;;6.75;3.15;;;;;;;4.11;96.49;97738.63;4257211;33;34545;-89
2023/12/02 07:58:14;;;;;;;10.95;4.22;;;;;;;5.10;92.53;97752.00;4252363;33;33347;-88
2023/12/02 08:00:43;;;;;;;9.45;3.33;;;;;;;4.33;96.74;97744.22;4252587;33;34719;-88
2023/12/02 08:03:12;;;;;;;7.78;4.10;;;;;;;4.76;94.21;97743.31;4249116;33;34124;-88
2023/12/02 08:05:44;;;;;;;5.35;3.17;;;;;;;4.60;95.56;97742.81;4255524;33;33207;-89
2023/12/02 08:08:13;;;;;;;8.90;3.87;;;;;;;4.83;94.72;97745.75;4258506;33;33529;-88
2023/12/02 08:10:43;;;;;;;10.55;4.15;;;;;;;4.81;93.99;97754.34;4255064;33;34201;-88
2023/12/02 08:13:12;;;;;;;19.30;4.28;;;;;;;4.68;94.42;97748.62;4250791;33;33064;-88
2023/12/02 08:15:45;;;;;;;9.20;4.25;;;;;;;5.03;93.32;97762.47;4253543;33;33401;-88
2023/12/02 08:18:15;;;;;;;11.40;5.07;;;;;;;5.23;92.07;97767.16;4256742;33;33769;-87
2023/12/02 08:20:44;;;;;;;6.60;3.20;;;;;;;4.55;96.48;97772.88;4242269;33;34399;-88
2023/12/02 08:23:13;;;;;;;9.27;3.85;;;;;;;4.77;95.16;97773.28;4250357;33;32701;-88
2023/12/02 08:25:50;;;;;;;5.28;3.40;;;;;;;4.70;96.13;97783.69;4249309;33;33743;-88
2023/12/02 08:28:18;;;;;;;11.32;4.57;;;;;;;5.29;92.44;97782.44;4252002;33;33758;-88
2023/12/02 08:30:50;;;;;;;8.95;3.78;;;;;;;4.89;93.49;97783.31;4254602;33;34106;-88
2023/12/02 08:33:19;;;;;;;11.43;4.62;;;;;;;5.35;91.43;97796.00;4252008;33;31647;-88
2023/12/02 08:35:48;;;;;;;7.22;3.20;;;;;;;5.70;89.19;97812.34;4239592;33;33603;-88
2023/12/02 08:38:17;;;;;;;5.45;3.30;;;;;;;5.76;89.89;97814.75;4251433;33;32371;-87
2023/12/02 08:40:51;;;;;;;7.47;4.07;;;;;;;5.40;91.52;97813.87;4255309;33;33537;-88
2023/12/02 08:43:21;;;;;;;7.75;3.95;;;;;;;5.37;90.79;97797.69;4246868;33;32754;-87
2023/12/02 08:45:52;;;;;;;11.05;3.92;;;;;;;5.34;92.78;97803.75;4251390;33;33986;-87
2023/12/02 08:48:21;;;;;;;9.65;3.95;;;;;;;5.02;92.50;97799.31;4251911;33;34007;-87
2023/12/02 08:50:53;;;;;;;7.32;4.50;;;;;;;5.32;93.84;97801.22;4237940;33;33472;-88
2023/12/02 08:53:22;;;;;;;7.82;3.90;;;;;;;5.71;90.26;97806.31;4256327;33;33125;-87
2023/12/02 08:56:01;;;;;;;8.57;4.37;;;;;;;5.87;89.96;97804.22;4253081;33;33329;-86
2023/12/02 08:58:38;;;;;;;7.68;4.05;;;;;;;5.60;88.90;97797.16;4252411;33;34367;-87
2023/12/02 09:01:07;;;;;;;9.48;3.83;;;;;;;5.60;91.96;97794.59;4241237;33;34315;-87
2023/12/02 09:03:41;;;;;;;7.55;3.87;;;;;;;5.88;89.95;97795.63;4254247;33;32207;-87
2023/12/02 09:06:10;;;;;;;12.48;5.03;;;;;;;5.30;90.72;97800.41;4257244;33;33347;-87
2023/12/02 09:08:40;;;;;;;8.75;4.35;;;;;;;5.41;92.03;97792.44;4257314;33;33934;-87
2023/12/02 09:11:09;;;;;;;8.65;3.72;;;;;;;5.05;92.85;97794.09;4254537;33;33183;-88
2023/12/02 09:13:46;;;;;;;8.57;4.25;;;;;;;4.82;96.31;97795.44;4253067;33;33170;-87
2023/12/02 09:16:22;;;;;;;10.95;4.47;;;;;;;5.13;94.17;97793.06;4255008;33;33425;-87
2023/12/02 09:18:53;;;;;;;12.85;4.40;;;;;;;5.16;92.91;97792.16;4257709;33;34342;-88
2023/12/02 09:21:44;;;;;;;10.90;6.15;;;;;;;5.58;93.46;97792.03;4251639;33;34168;-87
2023/12/02 09:24:34;;;;;;;8.32;3.40;;;;;;;5.42;93.65;97793.28;4254349;33;34132;-89
2023/12/02 09:27:05;;;;;;;9.20;5.12;;;;;;;5.86;90.49;97792.22;4251060;33;33444;-88
2023/12/02 09:29:41;;;;;;;11.45;4.90;;;;;;;5.81;89.96;97788.09;4251026;33;33526;-88
2023/12/02 09:32:46;;;;;;;9.03;3.83;;;;;;;6.00;90.64;97781.63;4257043;33;34398;-88
2023/12/02 09:35:19;;;;;;;12.18;5.85;;;;;;;6.57;86.93;97790.41;4255487;33;33917;-88
2023/12/02 09:37:58;;;;;;;12.52;5.75;;;;;;;6.39;87.42;97781.47;4252327;33;33153;-88
2023/12/02 09:40:36;;;;;;;11.27;4.45;;;;;;;5.88;91.20;97793.03;4255248;33;34178;-88
2023/12/02 09:43:28;;;;;;;11.20;4.95;;;;;;;5.74;89.62;97784.81;4255610;33;34007;-89
2023/12/02 09:46:23;;;;;;;13.77;4.75;;;;;;;6.40;88.06;97794.31;4242025;33;32747;-89
2023/12/02 09:49:05;;;;;;;9.27;4.43;;;;;;;6.11;89.33;97783.91;4243619;33;34620;-89
2023/12/02 09:52:01;;;;;;;7.10;4.18;;;;;;;6.65;86.09;97785.91;4243147;33;34696;-89
2023/12/02 09:54:39;;;;;;;10.38;5.62;;;;;;;6.46;86.34;97767.53;4259274;33;35272;-89
2023/12/02 09:57:13;;;;;;;6.57;3.42;;;;;;;6.89;84.33;97778.38;4255382;33;32105;-90
2023/12/02 09:59:59;;;;;;;8.95;4.47;;;;;;;6.73;84.58;97750.44;4256771;33;34493;-89
2023/12/02 10:02:59;;;;;;;10.63;4.53;;;;;;;6.94;82.69;97751.56;4249612;33;33475;-89
2023/12/02 10:05:35;;;;;;;18.65;4.00;;;;;;;7.07;82.31;97743.44;4252530;33;33557;-89
2023/12/02 10:08:12;;;;;;;10.82;5.05;;;;;;;6.90;82.68;97746.53;4253289;33;32809;-89
2023/12/02 10:10:59;;;;;;;9.13;4.93;;;;;;;7.10;82.24;97741.62;4257667;33;33673;-89
2023/12/02 10:13:36;;;;;;;10.05;4.20;;;;;;;7.41;78.83;97740.66;4254710;33;34369;-90
2023/12/02 10:16:10;;;;;;;9.00;4.05;;;;;;;7.04;82.26;97740.06;4251868;33;34247;-90
2023/12/02 10:18:51;;;;;;;9.13;4.22;;;;;;;7.31;80.58;97734.97;4252983;33;34776;-90
2023/12/02 10:21:29;;;;;;;10.23;5.40;;;;;;;7.05;82.53;97736.63;4250441;33;35319;-89
2023/12/02 10:24:03;;;;;;;8.32;4.57;;;;;;;7.30;81.29;97737.56;4256973;33;33829;-90
2023/12/02 10:26:42;;;;;;;7.43;4.60;;;;;;;6.99;84.04;97743.69;4255963;33;34288;-90
2023/12/02 10:29:17;;;;;;;8.68;5.28;;;;;;;7.11;84.09;97743.31;4251184;33;33975;-89
2023/12/02 10:31:59;;;;;;;8.35;4.80;;;;;;;7.55;80.34;97724.75;4250322;33;35242;-89
2023/12/02 10:34:55;;;;;;;13.68;6.18;;;;;;;7.36;80.61;97733.06;4255267;33;34683;-90
2023/12/02 10:37:36;;;;;;;10.75;4.30;;;;;;;7.39;80.08;97735.56;4257562;33;33982;-89
2023/12/02 10:40:11;;;;;;;11.10;6.18;;;;;;;7.35;79.15;97720.25;4251311;33;33725;-90
2023/12/02 10:42:57;;;;;;;13.27;5.53;;;;;;;7.11;80.54;97743.31;4257311;33;33228;-89
2023/12/02 10:45:27;;;;;;;12.32;5.45;;;;;;;7.17;80.30;97699.28;4252367;33;33738;-89
2023/12/02 10:47:57;;;;;;;12.88;5.18;;;;;;;6.90;81.90;97711.28;4253158;33;34493;-89
2023/12/02 10:50:29;;;;;;;11.40;5.07;;;;;;;6.79;83.19;97675.53;4238078;33;32026;-90
2023/12/02 10:53:03;;;;;;;11.65;5.80;;;;;;;7.05;81.38;97728.03;4253984;33;33841;-90
2023/12/02 10:55:36;;;;;;;9.55;4.53;;;;;;;6.46;84.71;97661.09;4259357;33;34468;-90
2023/12/02 10:58:15;;;;;;;15.07;5.85;;;;;;;7.07;81.66;97705.63;4255061;33;33381;-90
2023/12/02 11:00:45;;;;;;;21.23;5.65;;;;;;;6.92;83.30;97675.16;4255213;33;33850;-90
2023/12/02 11:03:26;;;;;;;13.23;4.57;;;;;;;7.23;79.45;97683.63;4254686;33;33000;-90
2023/12/02 11:09:16;;;;;;;11.63;5.22;;;;;;;6.89;82.08;97664.97;4258984;33;33538;-90
2023/12/02 11:11:57;;;;;;;8.45;4.30;;;;;;;6.57;82.54;97653.87;4258618;33;34430;-88
2023/12/02 11:14:34;;;;;;;15.35;4.43;;;;;;;6.80;82.01;97645.44;4254349;33;32982;-89
2023/12/02 11:17:07;;;;;;;15.02;4.10;;;;;;;6.93;81.04;97645.91;4255181;33;35031;-89
2023/12/02 11:19:51;;;;;;;11.32;4.78;;;;;;;6.81;81.12;97637.69;4255351;33;33606;-89
2023/12/02 11:22:36;;;;;;;9.13;4.50;;;;;;;6.59;82.24;97647.78;4253208;33;33200;-89
2023/12/02 11:28:25;;;;;;;11.07;5.47;;;;;;;6.81;82.07;97632.53;4247206;33;33699;-89
2023/12/02 11:31:17;;;;;;;7.45;4.68;;;;;;;6.88;81.48;97645.22;4258547;33;33182;-89
2023/12/02 11:34:11;;;;;;;11.63;5.00;;;;;;;6.95;81.14;97636.41;4254708;33;34522;-89
2023/12/02 11:36:48;;;;;;;22.62;4.72;;;;;;;6.89;81.47;97641.75;4254100;33;33559;-89
2023/12/02 11:39:35;;;;;;;10.82;4.50;;;;;;;6.82;82.02;97634.22;4256787;33;34405;-89
2023/12/02 11:42:15;;;;;;;11.80;4.80;;;;;;;6.92;81.96;97662.28;4252592;33;33678;-90
2023/12/02 11:44:59;;;;;;;13.70;4.57;;;;;;;6.97;82.45;97661.22;4254032;33;33148;-89
2023/12/02 11:47:51;;;;;;;10.20;4.15;;;;;;;7.16;81.07;97681.28;4255685;33;34554;-89
2023/12/02 11:50:33;;;;;;;14.23;4.95;;;;;;;7.18;80.97;97693.25;4259173;33;34221;-90
2023/12/02 11:53:23;;;;;;;8.05;4.35;;;;;;;7.14;80.96;97693.38;4251957;33;34459;-88
2023/12/02 11:56:01;;;;;;;9.40;4.87;;;;;;;7.18;80.78;97682.09;4254641;33;32600;-89
2023/12/02 11:58:39;;;;;;;7.40;4.12;;;;;;;7.21;80.16;97672.50;4253977;33;34700;-89
2023/12/02 12:01:16;;;;;;;13.52;5.00;;;;;;;7.11;80.25;97665.12;4253980;33;33334;-87
2023/12/02 12:04:13;;;;;;;11.02;4.87;;;;;;;7.00;80.90;97655.13;4254285;33;34570;-88
2023/12/02 12:06:50;;;;;;;12.43;4.87;;;;;;;6.77;82.13;97676.47;4245513;33;32869;-88
2023/12/02 12:09:23;;;;;;;15.77;6.55;;;;;;;6.89;82.63;97670.13;4258116;33;33409;-88
2023/12/02 12:12:02;;;;;;;11.63;6.03;;;;;;;7.04;81.01;97661.91;4240074;33;33843;-88
2023/12/02 12:14:32;;;;;;;12.55;5.85;;;;;;;6.95;81.49;97664.75;4252422;33;33295;-88